Portada
METAR-TAF:

METAR-TAF

Aeroports :

Ahwaz, Iran

latitud: 31-20N, longitud: 048-40E, altitud: 20 m

Observació

L'informe es va fer fa 17 minuts, a les 08:25 UTC
Vent 2 kt del Sud/Sud-Est
Temperatura 27°C
Humitat 23%
Pressió 1016 hPa
Visibilitat: 5000 m
calitja

METAR: OIAW 120825Z 15002KT 5000 HZ NSC 27/04 Q1016

Hora: 12:12 (08:42 UTC)

Pronòstic

L'informe es va fer fa 3 hores i 2 minuts, a les 05:40 UTC
Pronòstic vàlid del 12 a les 06 UTC al 13 a les 12 UTC
Vent 6 kt del Oest/Nord-Oest
Visibilitat: 5000 m
calitja
Evolucionant progressivament
l' 12 a les 08 UTC al 12 a les 10 UTC
Visibilitat: 7000 m
Evolucionant progressivament
l' 13 a les 02 UTC al 13 a les 03 UTC
Visibilitat: 4000 m
calitja
Evolucionant progressivament
l' 13 a les 07 UTC al 13 a les 09 UTC
Visibilitat: 7000 m

TAF: OIAW 120540Z 1206/1312 30006KT 5000 HZ NSC BECMG 1208/1210 7000 BECMG 1302/1303 4000 HZ BECMG 1307/1309 7000

Observacions i pronòstics meteorològics de més de 4000 aeroports (METAR i TAF).

Les estacions disponibles són els punts grocs i vermells al mapa.

Posi el ratolí al punt desitjat per veure el nom de l'estació.

Feu clic per veure les observacions i els pronòstics meteorològics.

Per canviar el mapa: feu clic els botons verds amb una creu de color negre per apropar; al botó verd amb un guió per allunyar la imatge; o en les fletxes verdes per a mapes adjacents.


METAR-TAF: